Time;durP1;ratioP1;P1;durP2;ratioP2;P2;SDS_P1;SDS_P2;PMS_P1;PMS_P2;Temp;Humidity;BMP_temperature;BMP_pressure;BME280_temperature;BME280_humidity;BME280_pressure;Samples;Min_cycle;Max_cycle;Signal;HPM_P1;HPM_P2
2023/12/08 00:00:19;;;;;;;7.88;5.43;;;2.50;60.40;;;;;;5016510;28;20129;-75
2023/12/08 00:02:44;;;;;;;9.60;6.38;;;2.50;60.30;;;;;;5016750;28;20119;-75
2023/12/08 00:05:10;;;;;;;13.13;5.95;;;2.40;60.40;;;;;;5016814;28;20506;-75
2023/12/08 00:07:37;;;;;;;10.82;5.85;;;2.40;60.00;;;;;;5033886;28;20029;-74
2023/12/08 00:10:03;;;;;;;11.73;5.25;;;2.40;60.60;;;;;;5016576;28;20029;-76
2023/12/08 00:12:29;;;;;;;6.53;4.80;;;2.40;59.40;;;;;;5016627;28;20032;-76
2023/12/08 00:14:54;;;;;;;8.73;5.15;;;2.50;59.00;;;;;;5016214;28;20025;-75
2023/12/08 00:17:21;;;;;;;8.55;5.47;;;2.50;59.50;;;;;;5016217;28;20382;-76
2023/12/08 00:19:47;;;;;;;7.00;4.75;;;2.60;59.40;;;;;;5033967;28;20412;-75
2023/12/08 00:22:12;;;;;;;11.52;5.15;;;2.50;59.90;;;;;;5016448;28;20051;-75
2023/12/08 00:24:38;;;;;;;8.07;4.80;;;2.60;60.00;;;;;;5016345;28;20033;-76
2023/12/08 00:27:04;;;;;;;7.53;4.95;;;2.50;59.60;;;;;;5016287;28;20386;-75
2023/12/08 00:29:30;;;;;;;7.90;5.10;;;2.50;59.60;;;;;;5015903;28;20118;-76
2023/12/08 00:31:57;;;;;;;8.60;4.90;;;2.60;60.00;;;;;;5016130;28;20033;-76
2023/12/08 00:34:23;;;;;;;7.93;5.50;;;2.60;59.80;;;;;;5016017;28;20056;-74
2023/12/08 00:36:48;;;;;;;6.60;4.53;;;2.60;59.00;;;;;;5016203;28;20045;-75
2023/12/08 00:39:14;;;;;;;6.05;4.30;;;2.70;58.50;;;;;;5015595;28;20056;-76
2023/12/08 00:41:39;;;;;;;5.65;4.18;;;2.80;58.20;;;;;;5015520;28;20029;-75
2023/12/08 00:44:05;;;;;;;5.60;3.90;;;2.90;58.70;;;;;;4999717;28;20386;-76
2023/12/08 00:46:31;;;;;;;4.72;3.38;;;3.00;56.80;;;;;;5015703;28;20029;-75
2023/12/08 00:48:58;;;;;;;5.63;3.65;;;3.10;53.90;;;;;;5016612;28;20080;-76
2023/12/08 00:51:24;;;;;;;5.63;3.90;;;3.30;53.10;;;;;;5015362;28;20057;-76
2023/12/08 00:53:49;;;;;;;5.15;3.60;;;3.40;52.60;;;;;;5015094;28;20437;-76
2023/12/08 00:56:15;;;;;;;4.95;3.90;;;3.50;52.40;;;;;;5015996;28;20038;-75
2023/12/08 00:58:40;;;;;;;6.20;4.15;;;3.50;52.90;;;;;;5015877;28;20018;-75
2023/12/08 01:01:06;;;;;;;5.97;4.20;;;3.50;53.50;;;;;;5015568;28;20393;-75
2023/12/08 01:03:32;;;;;;;7.28;3.70;;;3.50;53.70;;;;;;5033228;28;20021;-75
2023/12/08 01:05:58;;;;;;;6.10;4.22;;;3.40;54.50;;;;;;5015518;28;20037;-75
2023/12/08 01:08:23;;;;;;;5.82;3.88;;;3.40;54.20;;;;;;5015361;28;20493;-75
2023/12/08 01:10:49;;;;;;;4.80;3.55;;;3.40;53.70;;;;;;5032875;28;20072;-74
2023/12/08 01:13:15;;;;;;;4.88;3.30;;;3.50;52.00;;;;;;5015707;28;20052;-76
2023/12/08 01:15:41;;;;;;;3.75;3.17;;;3.60;51.00;;;;;;5015808;28;20029;-76
2023/12/08 01:18:06;;;;;;;6.32;3.88;;;3.60;51.20;;;;;;5015769;28;20063;-76
2023/12/08 01:20:33;;;;;;;4.10;3.28;;;3.70;52.30;;;;;;5032885;28;20124;-75
2023/12/08 01:22:58;;;;;;;5.28;3.33;;;3.70;52.20;;;;;;5015597;28;20022;-75
2023/12/08 01:25:24;;;;;;;4.85;3.65;;;3.70;52.00;;;;;;5015942;28;20033;-76
2023/12/08 01:27:49;;;;;;;4.50;3.47;;;3.70;52.00;;;;;;5015483;28;20075;-76
2023/12/08 01:30:15;;;;;;;4.53;3.60;;;3.70;52.30;;;;;;5015413;28;20041;-75
2023/12/08 01:32:40;;;;;;;5.03;3.58;;;3.80;52.20;;;;;;5015417;28;20099;-76
2023/12/08 01:35:06;;;;;;;6.47;3.75;;;3.70;53.30;;;;;;5015440;28;20021;-76
2023/12/08 01:37:32;;;;;;;4.50;3.63;;;3.70;53.20;;;;;;5032892;28;20033;-75
2023/12/08 01:39:58;;;;;;;6.15;3.80;;;3.70;52.30;;;;;;5015426;28;20021;-75
2023/12/08 01:42:23;;;;;;;5.57;3.88;;;3.70;52.20;;;;;;5015258;28;20501;-74
2023/12/08 01:44:49;;;;;;;7.20;4.38;;;3.70;52.60;;;;;;5032645;28;20025;-76
2023/12/08 01:47:16;;;;;;;5.78;4.10;;;3.70;53.20;;;;;;5032665;28;20026;-74
2023/12/08 01:49:42;;;;;;;6.78;4.50;;;3.70;53.20;;;;;;5032604;28;20029;-74
2023/12/08 01:52:09;;;;;;;11.77;5.38;;;3.70;53.40;;;;;;5015160;28;20065;-75
2023/12/08 01:54:35;;;;;;;8.80;5.05;;;3.60;53.60;;;;;;5019218;28;20091;-75
2023/12/08 01:57:02;;;;;;;6.55;4.60;;;3.50;53.80;;;;;;5019236;28;20034;-74
2023/12/08 01:59:28;;;;;;;7.75;4.60;;;3.40;54.50;;;;;;5019331;28;20049;-75
2023/12/08 02:01:54;;;;;;;6.30;3.85;;;3.50;54.20;;;;;;5019499;28;20025;-76
2023/12/08 02:04:20;;;;;;;7.20;4.07;;;3.40;53.70;;;;;;5019162;28;20112;-77
2023/12/08 02:06:46;;;;;;;5.63;4.47;;;3.50;53.20;;;;;;5019032;28;20091;-76
2023/12/08 02:09:12;;;;;;;5.63;3.95;;;3.50;53.90;;;;;;5018942;28;20128;-77
2023/12/08 02:15:02;;;;;;;7.63;4.25;;;3.50;54.70;;;;;;5036451;28;20037;-76
2023/12/08 02:17:38;;;;;;;7.15;4.50;;;3.50;54.70;;;;;;5018763;28;20021;-76
2023/12/08 02:20:06;;;;;;;8.63;5.10;;;3.50;54.90;;;;;;5018848;28;20052;-76
2023/12/08 02:22:33;;;;;;;8.82;5.10;;;3.40;54.70;;;;;;5055481;28;20179;-77
2023/12/08 02:24:58;;;;;;;6.88;4.75;;;3.50;55.10;;;;;;5037894;28;20029;-77
2023/12/08 02:27:51;;;;;;;7.63;5.10;;;3.50;55.60;;;;;;5054785;28;20056;-77
2023/12/08 02:30:17;;;;;;;6.95;4.40;;;3.50;58.20;;;;;;5053891;28;20071;-76
2023/12/08 02:32:57;;;;;;;7.05;4.72;;;3.40;59.20;;;;;;5051455;28;20107;-76
2023/12/08 02:35:24;;;;;;;15.25;7.85;;;3.40;60.30;;;;;;5018507;28;20026;-76
2023/12/08 02:37:52;;;;;;;11.15;5.90;;;3.30;62.60;;;;;;5034991;28;20025;-76
2023/12/08 02:40:18;;;;;;;7.35;5.00;;;3.30;62.60;;;;;;5034572;28;20049;-77
2023/12/08 02:43:26;;;;;;;9.50;5.78;;;3.20;62.80;;;;;;5034851;28;20033;-77
2023/12/08 02:46:41;;;;;;;10.50;6.85;;;3.20;63.10;;;;;;5033815;28;20034;-77
2023/12/08 02:53:29;;;;;;;7.75;5.88;;;3.20;64.50;;;;;;4965792;28;20445;-78
2023/12/08 02:56:12;;;;;;;10.45;6.28;;;3.20;59.30;;;;;;5023485;28;20048;-77
2023/12/08 02:58:39;;;;;;;9.95;6.60;;;3.10;59.30;;;;;;5033713;28;20056;-76
2023/12/08 03:01:05;;;;;;;9.50;5.97;;;3.00;59.70;;;;;;5034508;28;20029;-76
2023/12/08 03:03:31;;;;;;;9.20;6.10;;;3.00;59.90;;;;;;5017698;28;20057;-76
2023/12/08 03:05:56;;;;;;;7.85;5.75;;;3.00;59.90;;;;;;5017347;28;20022;-76
2023/12/08 03:08:22;;;;;;;10.70;5.63;;;2.90;59.80;;;;;;5033897;28;20029;-76
2023/12/08 03:10:48;;;;;;;9.00;5.53;;;3.00;59.50;;;;;;5014098;28;20530;-75
2023/12/08 03:13:14;;;;;;;8.02;5.30;;;3.00;59.30;;;;;;5000765;28;20029;-75
2023/12/08 03:15:42;;;;;;;8.02;5.13;;;3.00;59.40;;;;;;5035400;28;20115;-76
2023/12/08 03:18:07;;;;;;;8.20;5.30;;;3.00;59.10;;;;;;5035160;28;20474;-76
2023/12/08 03:20:33;;;;;;;8.32;5.55;;;3.00;59.40;;;;;;5034933;28;20107;-75
2023/12/08 03:22:59;;;;;;;7.25;5.35;;;3.10;59.70;;;;;;5034082;28;20183;-76
2023/12/08 03:25:25;;;;;;;7.68;5.57;;;3.10;59.80;;;;;;5035059;28;20390;-75
2023/12/08 03:27:50;;;;;;;6.95;5.55;;;3.10;59.40;;;;;;5034950;28;20025;-75
2023/12/08 03:30:16;;;;;;;8.48;5.53;;;3.10;59.30;;;;;;5034935;28;20032;-76
2023/12/08 03:32:42;;;;;;;8.75;5.78;;;3.10;60.20;;;;;;5035031;28;20036;-74
2023/12/08 03:35:10;;;;;;;8.27;5.53;;;3.10;59.40;;;;;;5034951;28;20017;-74
2023/12/08 03:37:36;;;;;;;7.35;5.18;;;3.10;59.20;;;;;;5033953;28;20077;-74
2023/12/08 03:40:02;;;;;;;6.78;4.82;;;3.10;58.80;;;;;;5033770;28;20409;-74
2023/12/08 03:42:27;;;;;;;9.38;5.18;;;3.20;59.20;;;;;;5034844;28;20029;-74
2023/12/08 03:44:53;;;;;;;8.70;5.90;;;3.20;60.90;;;;;;5033754;28;20542;-74
2023/12/08 03:47:18;;;;;;;13.40;6.55;;;3.10;61.00;;;;;;5033285;28;20505;-75
2023/12/08 03:49:44;;;;;;;10.23;6.90;;;3.10;60.00;;;;;;5033357;28;20068;-75
2023/12/08 03:52:10;;;;;;;10.20;6.82;;;3.10;60.10;;;;;;5034333;28;20095;-74
2023/12/08 03:54:35;;;;;;;10.32;7.68;;;3.10;60.50;;;;;;5033274;28;20470;-75
2023/12/08 03:57:01;;;;;;;9.82;6.25;;;3.10;60.70;;;;;;5033260;28;20025;-76
2023/12/08 03:59:27;;;;;;;8.50;5.97;;;3.10;60.70;;;;;;5033500;28;20164;-76
2023/12/08 04:02:14;;;;;;;9.30;5.90;;;3.10;60.50;;;;;;5034233;28;20028;-76
2023/12/08 04:04:41;;;;;;;7.60;5.47;;;3.10;60.40;;;;;;5033150;28;20462;-76
2023/12/08 04:07:15;;;;;;;6.00;4.45;;;3.20;60.40;;;;;;5033193;28;20037;-75
2023/12/08 04:09:43;;;;;;;7.75;5.75;;;3.30;60.50;;;;;;5016292;28;20029;-75
2023/12/08 04:12:14;;;;;;;9.52;6.22;;;3.30;61.00;;;;;;5034036;28;20339;-76
2023/12/08 04:14:40;;;;;;;7.95;6.13;;;3.40;61.30;;;;;;5034203;28;20044;-75
2023/12/08 04:17:26;;;;;;;8.82;6.15;;;3.40;61.50;;;;;;5031938;28;20470;-76
2023/12/08 04:19:52;;;;;;;8.00;5.43;;;3.40;62.00;;;;;;5034000;28;20048;-75
2023/12/08 04:22:17;;;;;;;7.45;4.53;;;3.40;62.30;;;;;;5032969;28;20017;-75
2023/12/08 04:24:43;;;;;;;7.40;4.30;;;3.40;63.50;;;;;;5032931;28;20029;-75
2023/12/08 04:27:08;;;;;;;5.70;4.20;;;3.40;64.10;;;;;;5032852;28;20022;-77
2023/12/08 04:29:34;;;;;;;5.40;3.60;;;3.30;65.20;;;;;;5033784;28;20041;-77
2023/12/08 04:31:59;;;;;;;10.13;5.05;;;3.30;65.40;;;;;;5032352;28;20047;-77
2023/12/08 04:34:25;;;;;;;8.32;5.55;;;3.30;64.30;;;;;;5032365;28;20022;-75
2023/12/08 04:37:00;;;;;;;;;;;3.20;63.00;;;;;;5090613;27;20439;-76
2023/12/08 04:39:25;;;;;;;9.48;5.60;;;3.20;62.40;;;;;;5090467;28;19908;-75
2023/12/08 04:41:51;;;;;;;9.52;6.25;;;3.20;62.70;;;;;;5072086;28;20020;-76
2023/12/08 04:44:17;;;;;;;9.88;5.88;;;3.20;62.90;;;;;;5072692;28;20424;-77
2023/12/08 04:46:43;;;;;;;15.25;8.00;;;3.20;62.90;;;;;;5072284;28;20032;-78
2023/12/08 04:49:08;;;;;;;15.38;8.50;;;3.30;62.60;;;;;;5090691;28;20020;-78
2023/12/08 04:57:56;;;;;;;6.57;4.32;;;3.40;61.70;;;;;;5015883;26;20122;-76
2023/12/08 05:03:33;;;;;;;5.55;3.78;;;3.50;60.50;;;;;;5196260;22;20077;-76
2023/12/08 05:08:34;;;;;;;;;;;3.80;59.80;;;;;;5132868;22;20044;-75
2023/12/08 05:10:59;;;;;;;;;;;3.90;59.40;;;;;;5092612;28;19908;-75
2023/12/08 05:13:25;;;;;;;3.83;2.72;;;3.90;59.10;;;;;;5091751;28;19966;-75
2023/12/08 05:15:51;;;;;;;4.03;3.20;;;4.00;59.20;;;;;;5109883;28;20079;-76
2023/12/08 05:18:16;;;;;;;6.28;4.03;;;4.20;59.30;;;;;;5109876;28;20023;-75
2023/12/08 05:20:42;;;;;;;5.65;2.88;;;4.30;59.10;;;;;;5109956;28;20507;-75
2023/12/08 05:23:07;;;;;;;5.57;2.20;;;4.30;58.60;;;;;;5109895;28;20024;-75
2023/12/08 05:25:34;;;;;;;2.63;1.90;;;4.30;59.00;;;;;;5109782;28;20020;-74
2023/12/08 05:27:59;;;;;;;4.15;1.00;;;4.50;60.80;;;;;;5109873;28;20111;-74
2023/12/08 05:30:25;;;;;;;0.90;0.70;;;4.80;66.80;;;;;;5091633;28;20111;-75
2023/12/08 05:32:51;;;;;;;2.08;1.33;;;5.20;67.80;;;;;;5091739;28;20031;-75
2023/12/08 05:35:16;;;;;;;6.53;0.90;;;5.50;70.00;;;;;;5091329;28;20032;-75
2023/12/08 05:37:42;;;;;;;1.63;1.00;;;5.80;71.70;;;;;;5091479;28;20516;-75
2023/12/08 05:40:08;;;;;;;2.80;1.20;;;6.00;70.50;;;;;;5109779;28;20024;-75
2023/12/08 05:42:36;;;;;;;3.63;1.60;;;6.00;69.80;;;;;;5113462;28;20034;-75
2023/12/08 05:45:02;;;;;;;5.03;1.35;;;5.80;67.60;;;;;;5109469;28;20159;-75
2023/12/08 05:47:27;;;;;;;1.25;0.80;;;5.60;70.90;;;;;;5082425;28;20063;-76
2023/12/08 05:49:53;;;;;;;0.80;0.80;;;5.60;76.30;;;;;;5096110;28;20016;-77
2023/12/08 05:52:19;;;;;;;2.17;1.02;;;5.80;77.80;;;;;;5077626;28;20024;-79
2023/12/08 05:54:44;;;;;;;1.15;0.63;;;5.90;77.80;;;;;;5077574;28;20024;-78
2023/12/08 05:57:10;;;;;;;0.93;0.88;;;6.10;78.10;;;;;;5077591;28;20031;-78
2023/12/08 05:59:35;;;;;;;1.73;0.90;;;6.10;78.70;;;;;;5061082;28;20023;-76
2023/12/08 06:02:01;;;;;;;1.40;0.80;;;6.10;78.80;;;;;;5077307;28;20100;-77
2023/12/08 06:04:27;;;;;;;1.15;0.55;;;6.00;79.10;;;;;;5061124;28;20024;-76
2023/12/08 06:06:53;;;;;;;1.70;0.90;;;6.20;78.90;;;;;;5077481;28;20484;-76
2023/12/08 06:09:19;;;;;;;1.67;0.90;;;6.20;79.40;;;;;;5095665;28;20032;-76
2023/12/08 06:11:44;;;;;;;2.58;0.95;;;6.10;80.10;;;;;;5077671;28;20073;-77
2023/12/08 06:14:10;;;;;;;4.03;0.95;;;6.10;81.00;;;;;;5095389;28;20066;-76
2023/12/08 06:16:36;;;;;;;4.03;0.95;;;6.00;81.40;;;;;;5077035;28;20148;-78
2023/12/08 06:19:04;;;;;;;1.90;0.88;;;6.10;80.90;;;;;;5076894;28;20802;-77
2023/12/08 06:21:29;;;;;;;2.00;1.25;;;6.20;81.00;;;;;;5095026;28;20365;-77
2023/12/08 06:23:55;;;;;;;1.77;0.90;;;6.10;81.40;;;;;;5095119;28;20049;-76
2023/12/08 06:26:21;;;;;;;1.20;1.05;;;6.10;82.20;;;;;;5095376;28;20023;-76
2023/12/08 06:28:49;;;;;;;1.73;1.20;;;6.00;82.00;;;;;;5095101;28;20099;-76
2023/12/08 06:31:15;;;;;;;1.63;1.38;;;6.00;82.30;;;;;;5094963;28;20028;-76
2023/12/08 06:33:41;;;;;;;2.38;1.30;;;6.00;82.50;;;;;;5076813;28;20484;-77
2023/12/08 06:36:07;;;;;;;2.40;1.70;;;6.00;82.60;;;;;;5094836;28;20396;-77
2023/12/08 06:38:33;;;;;;;3.05;2.22;;;5.90;83.50;;;;;;5076627;28;20032;-77
2023/12/08 06:40:59;;;;;;;2.40;2.00;;;5.80;83.90;;;;;;5094997;28;20111;-78
2023/12/08 06:43:24;;;;;;;2.97;2.58;;;5.80;83.70;;;;;;5076966;28;20061;-77
2023/12/08 06:45:50;;;;;;;3.25;2.40;;;5.80;83.50;;;;;;5076624;28;20031;-76
2023/12/08 06:48:17;;;;;;;2.75;2.38;;;5.80;84.00;;;;;;5094735;28;20028;-78
2023/12/08 06:50:43;;;;;;;2.85;1.98;;;5.80;83.30;;;;;;5095203;28;20028;-78
2023/12/08 06:53:09;;;;;;;2.88;2.55;;;5.90;83.30;;;;;;5094780;28;20020;-76
2023/12/08 06:55:35;;;;;;;3.65;2.45;;;5.90;83.40;;;;;;5094287;28;20097;-76
2023/12/08 06:58:01;;;;;;;3.22;2.58;;;5.80;83.30;;;;;;5075996;28;20445;-76
2023/12/08 07:00:27;;;;;;;3.70;2.50;;;5.90;83.20;;;;;;5076062;28;20020;-76
2023/12/08 07:02:52;;;;;;;2.65;2.40;;;5.90;83.40;;;;;;5076264;28;20035;-77
2023/12/08 07:05:19;;;;;;;3.45;2.47;;;5.90;83.30;;;;;;5062696;28;20052;-76
2023/12/08 07:07:47;;;;;;;2.72;2.05;;;5.90;83.30;;;;;;5075946;28;20071;-79
2023/12/08 07:10:14;;;;;;;2.30;2.03;;;5.90;83.50;;;;;;5100089;28;20024;-77
2023/12/08 07:12:40;;;;;;;2.67;2.17;;;5.90;83.20;;;;;;5076780;28;20047;-78
2023/12/08 07:15:06;;;;;;;3.47;2.55;;;6.00;83.20;;;;;;5076895;28;20400;-78
2023/12/08 07:17:32;;;;;;;2.45;2.00;;;5.90;83.90;;;;;;5077235;28;20520;-78
2023/12/08 07:19:57;;;;;;;2.58;2.10;;;5.90;83.70;;;;;;5076524;28;20042;-78
2023/12/08 07:22:23;;;;;;;3.03;2.08;;;5.90;84.70;;;;;;5076283;28;20058;-78
2023/12/08 07:24:48;;;;;;;2.25;1.85;;;5.90;83.70;;;;;;5076748;28;20047;-78
2023/12/08 07:27:16;;;;;;;2.72;1.83;;;5.90;83.90;;;;;;5076559;28;20069;-79
2023/12/08 07:29:41;;;;;;;2.55;1.98;;;5.90;83.70;;;;;;5075956;28;20035;-76
2023/12/08 07:32:07;;;;;;;2.15;1.88;;;6.00;83.50;;;;;;5075539;28;20024;-76
2023/12/08 07:34:33;;;;;;;2.08;1.60;;;6.00;83.70;;;;;;5093277;28;20140;-78
2023/12/08 07:36:58;;;;;;;1.80;1.50;;;6.00;83.30;;;;;;5093633;28;20039;-77
2023/12/08 07:39:24;;;;;;;1.75;1.40;;;6.00;83.30;;;;;;5094145;28;20050;-76
2023/12/08 07:41:49;;;;;;;2.00;1.80;;;6.00;83.20;;;;;;5076020;28;20047;-78
2023/12/08 07:44:17;;;;;;;1.83;1.48;;;6.00;83.50;;;;;;5074965;28;20069;-77
2023/12/08 07:46:44;;;;;;;2.72;1.88;;;6.00;84.10;;;;;;5075015;28;20036;-77
2023/12/08 07:49:09;;;;;;;1.40;1.23;;;6.00;83.80;;;;;;5058745;28;20417;-77
2023/12/08 07:51:36;;;;;;;2.67;2.30;;;6.00;83.70;;;;;;5075600;28;20024;-78
2023/12/08 07:54:03;;;;;;;4.07;3.00;;;6.00;83.50;;;;;;5075439;28;20081;-75
2023/12/08 07:56:29;;;;;;;4.57;1.88;;;6.00;83.90;;;;;;5075370;28;20032;-74
2023/12/08 07:58:54;;;;;;;2.20;1.80;;;6.00;83.80;;;;;;5093806;28;20357;-76
2023/12/08 08:01:20;;;;;;;1.75;1.45;;;6.00;84.10;;;;;;5075035;28;20437;-76
2023/12/08 08:03:46;;;;;;;2.33;1.60;;;6.00;83.80;;;;;;5074775;28;20032;-77
2023/12/08 08:06:11;;;;;;;1.60;1.30;;;6.10;84.30;;;;;;5093934;28;20047;-79
2023/12/08 08:08:40;;;;;;;1.40;1.30;;;6.10;84.10;;;;;;5096203;28;20404;-79
2023/12/08 08:11:06;;;;;;;2.80;2.00;;;6.10;84.00;;;;;;5075541;28;20062;-77
2023/12/08 08:13:31;;;;;;;2.63;1.40;;;6.00;84.30;;;;;;5075614;28;20060;-77
2023/12/08 08:15:58;;;;;;;2.25;1.77;;;6.00;83.90;;;;;;5075983;28;20032;-79
2023/12/08 08:18:28;;;;;;;1.67;1.38;;;6.00;84.20;;;;;;5075093;28;20020;-77
2023/12/08 08:20:54;;;;;;;2.00;1.20;;;6.00;84.30;;;;;;5093414;28;20070;-81
2023/12/08 08:23:20;;;;;;;2.45;1.50;;;6.00;84.10;;;;;;5092702;28;20020;-75
2023/12/08 08:25:47;;;;;;;1.73;1.45;;;6.00;84.30;;;;;;5075492;28;20028;-75
2023/12/08 08:28:13;;;;;;;1.50;1.40;;;6.00;84.60;;;;;;5095343;28;20051;-75
2023/12/08 08:30:41;;;;;;;1.63;1.42;;;5.90;84.50;;;;;;5074876;28;20039;-76
2023/12/08 08:33:07;;;;;;;1.45;1.27;;;5.90;84.70;;;;;;5074590;28;20023;-74
2023/12/08 08:35:33;;;;;;;2.67;1.50;;;6.00;84.60;;;;;;5074613;28;20024;-75
2023/12/08 08:37:58;;;;;;;1.30;1.20;;;5.90;84.70;;;;;;5074323;28;20043;-84
2023/12/08 08:40:25;;;;;;;1.45;1.10;;;5.90;84.70;;;;;;5074645;28;20027;-77
2023/12/08 08:42:52;;;;;;;3.67;1.23;;;6.00;84.60;;;;;;5074781;28;20302;-77
2023/12/08 08:45:19;;;;;;;3.25;1.23;;;5.90;84.40;;;;;;5093902;28;20025;-80
2023/12/08 08:47:45;;;;;;;1.63;1.20;;;6.00;84.40;;;;;;5074487;28;20107;-77
2023/12/08 08:50:11;;;;;;;17.30;3.40;;;5.90;84.20;;;;;;5074340;28;20016;-78
2023/12/08 08:52:36;;;;;;;10.43;2.58;;;6.00;86.00;;;;;;5208612;22;20098;-83
2023/12/08 08:55:04;;;;;;;7.85;2.40;;;6.40;87.90;;;;;;5075757;28;20119;-82
2023/12/08 08:57:31;;;;;;;4.43;1.75;;;6.80;87.90;;;;;;5058709;28;20054;-83
2023/12/08 08:59:56;;;;;;;3.22;1.70;;;7.40;84.90;;;;;;5076264;28;20127;-86
2023/12/08 09:02:22;;;;;;;4.25;2.17;;;7.70;81.40;;;;;;5076366;28;20097;-82
2023/12/08 09:04:47;;;;;;;3.30;2.22;;;8.10;79.80;;;;;;5075302;28;20432;-83
2023/12/08 09:07:13;;;;;;;3.35;2.72;;;8.50;77.90;;;;;;5074715;28;20027;-82
2023/12/08 09:09:39;;;;;;;2.95;2.70;;;8.80;76.10;;;;;;5092551;28;20380;-76
2023/12/08 09:12:07;;;;;;;3.80;2.30;;;9.00;74.20;;;;;;5092713;28;20024;-74
2023/12/08 09:14:33;;;;;;;2.30;1.60;;;8.80;73.80;;;;;;5057638;28;20032;-76
2023/12/08 09:17:04;;;;;;;2.00;1.75;;;8.50;74.10;;;;;;5092418;28;20392;-76
2023/12/08 09:19:32;;;;;;;2.03;1.85;;;8.20;74.90;;;;;;5074281;28;20020;-76
2023/12/08 09:21:57;;;;;;;11.27;8.55;;;7.90;75.90;;;;;;5093661;28;20024;-76
2023/12/08 09:24:25;;;;;;;4.80;3.58;;;7.60;76.30;;;;;;5096405;28;20020;-76
2023/12/08 09:26:52;;;;;;;7.50;3.80;;;7.30;77.80;;;;;;5096543;28;20016;-77
2023/12/08 09:29:18;;;;;;;5.13;3.30;;;7.10;78.50;;;;;;5096408;28;20024;-77
2023/12/08 09:31:43;;;;;;;2.17;1.98;;;7.00;79.30;;;;;;5096280;28;20499;-77
2023/12/08 09:34:09;;;;;;;2.25;1.40;;;7.00;79.90;;;;;;5095482;28;20388;-77
2023/12/08 09:36:35;;;;;;;3.08;2.03;;;6.90;80.30;;;;;;5077469;28;20059;-77
2023/12/08 09:39:03;;;;;;;3.65;1.80;;;6.80;80.60;;;;;;5095379;28;20066;-76
2023/12/08 09:41:30;;;;;;;2.42;2.00;;;6.70;81.30;;;;;;5095577;28;20031;-77
2023/12/08 09:44:12;;;;;;;1.33;0.90;;;6.70;81.50;;;;;;5095552;28;20016;-75
2023/12/08 09:46:54;;;;;;;2.03;1.10;;;6.70;82.00;;;;;;5096063;28;20369;-75
2023/12/08 09:49:35;;;;;;;0.90;0.90;;;6.60;81.90;;;;;;5096009;28;20353;-76
2023/12/08 09:52:01;;;;;;;0.88;0.80;;;6.60;82.10;;;;;;5095691;28;20048;-76
2023/12/08 09:54:27;;;;;;;2.05;1.13;;;6.50;82.30;;;;;;5095611;28;20028;-77
2023/12/08 09:56:54;;;;;;;4.05;2.53;;;6.50;82.50;;;;;;5094970;28;20047;-77
2023/12/08 09:59:26;;;;;;;4.15;2.58;;;6.50;82.80;;;;;;5095499;28;20027;-76
2023/12/08 10:01:52;;;;;;;3.88;2.30;;;6.40;82.80;;;;;;5095386;28;20056;-76
2023/12/08 10:04:17;;;;;;;3.03;2.08;;;6.40;82.70;;;;;;5076995;28;20102;-76
2023/12/08 10:06:44;;;;;;;1.98;1.67;;;6.50;82.90;;;;;;5076715;28;20484;-76
2023/12/08 10:09:11;;;;;;;0.98;0.70;;;6.50;82.50;;;;;;5095057;28;20354;-76
2023/12/08 10:11:39;;;;;;;1.38;1.00;;;6.60;82.00;;;;;;5077030;28;20048;-77
2023/12/08 10:14:05;;;;;;;0.82;0.70;;;6.60;81.90;;;;;;5094682;28;20407;-76
2023/12/08 10:16:31;;;;;;;1.38;0.90;;;6.60;81.70;;;;;;5094967;28;20054;-76
2023/12/08 10:19:07;;;;;;;0.60;0.60;;;6.60;81.40;;;;;;5094783;28;20035;-75
2023/12/08 10:21:38;;;;;;;0.68;0.57;;;6.70;81.50;;;;;;5076880;28;20035;-77
2023/12/08 10:24:08;;;;;;;1.98;0.98;;;6.60;81.20;;;;;;5095173;28;20062;-75
2023/12/08 10:26:34;;;;;;;0.68;0.50;;;6.70;81.50;;;;;;5077233;28;20047;-76
2023/12/08 10:29:00;;;;;;;1.15;0.98;;;6.70;81.60;;;;;;5076656;28;20024;-75
2023/12/08 10:31:27;;;;;;;1.58;1.20;;;6.70;81.00;;;;;;5076989;28;20544;-74
2023/12/08 10:33:54;;;;;;;1.20;1.00;;;6.70;81.00;;;;;;5076348;28;20422;-74
2023/12/08 10:36:20;;;;;;;1.70;1.10;;;6.80;80.50;;;;;;5076763;28;20108;-75
2023/12/08 10:38:56;;;;;;;2.50;1.67;;;6.80;80.60;;;;;;5076416;28;20481;-82
2023/12/08 10:41:22;;;;;;;1.67;1.35;;;6.90;80.70;;;;;;5076733;28;20495;-78
2023/12/08 10:43:50;;;;;;;2.58;1.50;;;6.80;80.30;;;;;;5076759;28;20029;-77
2023/12/08 10:46:16;;;;;;;2.33;1.50;;;6.80;79.70;;;;;;5076593;28;20028;-78
2023/12/08 10:48:47;;;;;;;2.85;1.30;;;6.80;79.80;;;;;;5076444;28;20031;-78
2023/12/08 10:51:16;;;;;;;3.40;1.60;;;6.80;79.10;;;;;;5076420;28;20043;-76
2023/12/08 10:53:44;;;;;;;2.30;1.63;;;6.70;79.50;;;;;;5076535;28;20036;-77
2023/12/08 10:56:16;;;;;;;1.88;1.50;;;6.60;79.80;;;;;;5076023;28;20458;-76
2023/12/08 10:58:44;;;;;;;2.10;1.50;;;6.70;80.10;;;;;;5075830;28;20024;-76
2023/12/08 11:01:15;;;;;;;1.35;1.20;;;6.70;80.20;;;;;;5094192;28;20107;-76
2023/12/08 11:03:48;;;;;;;1.85;1.58;;;6.60;80.00;;;;;;5059607;28;20031;-78
2023/12/08 11:06:34;;;;;;;2.08;1.50;;;6.60;80.40;;;;;;5043397;28;20115;-75
2023/12/08 11:09:06;;;;;;;4.90;2.80;;;6.40;80.70;;;;;;5094960;28;20096;-77
2023/12/08 11:11:35;;;;;;;6.53;4.20;;;6.40;81.00;;;;;;5077657;28;20028;-76
2023/12/08 11:14:08;;;;;;;1.83;1.50;;;6.40;81.10;;;;;;5075926;28;20078;-77
2023/12/08 11:16:49;;;;;;;4.72;2.75;;;6.40;81.00;;;;;;5075841;28;20043;-77
2023/12/08 11:19:17;;;;;;;13.65;12.00;;;6.40;80.90;;;;;;5093993;28;20020;-78
2023/12/08 11:21:43;;;;;;;6.65;4.45;;;6.40;81.00;;;;;;5075941;28;20024;-78
2023/12/08 11:24:11;;;;;;;3.97;3.58;;;6.50;80.60;;;;;;5076250;28;20023;-79
2023/12/08 11:26:58;;;;;;;2.58;2.25;;;6.50;80.60;;;;;;5075985;28;20027;-76
2023/12/08 11:30:01;;;;;;;2.58;2.15;;;6.40;80.20;;;;;;5074929;28;20030;-78
2023/12/08 11:32:50;;;;;;;3.35;2.70;;;6.40;80.40;;;;;;5082384;28;20384;-76
2023/12/08 11:35:17;;;;;;;3.92;3.00;;;6.50;80.30;;;;;;5093927;28;20032;-77
2023/12/08 11:37:45;;;;;;;3.45;2.50;;;6.50;80.70;;;;;;5093796;28;20081;-76
2023/12/08 11:40:11;;;;;;;2.15;1.95;;;6.50;80.70;;;;;;5074827;28;20484;-76
2023/12/08 11:42:39;;;;;;;2.03;1.80;;;6.50;80.20;;;;;;5093432;28;20060;-76
2023/12/08 11:45:10;;;;;;;1.42;1.25;;;6.50;80.30;;;;;;5074686;28;20037;-78
2023/12/08 11:47:37;;;;;;;1.80;1.45;;;6.60;80.50;;;;;;5058333;28;20028;-75
2023/12/08 11:50:06;;;;;;;2.30;2.05;;;6.70;80.50;;;;;;5092724;28;20020;-76
2023/12/08 11:52:33;;;;;;;2.45;2.25;;;6.70;80.30;;;;;;5074394;28;20373;-77
2023/12/08 11:55:19;;;;;;;3.45;2.83;;;6.80;79.90;;;;;;5074754;28;20020;-78
2023/12/08 11:58:02;;;;;;;3.67;2.75;;;6.90;79.80;;;;;;5093178;28;20028;-77
2023/12/08 12:00:31;;;;;;;5.55;3.33;;;6.90;79.70;;;;;;5092975;28;20024;-76
2023/12/08 12:02:58;;;;;;;5.55;2.55;;;6.80;79.50;;;;;;5075133;28;20441;-75
2023/12/08 12:05:26;;;;;;;1.55;1.45;;;6.80;79.70;;;;;;5093317;28;20027;-76
2023/12/08 12:07:53;;;;;;;2.33;2.08;;;6.70;79.60;;;;;;5074819;28;20081;-75
2023/12/08 12:10:34;;;;;;;3.53;2.13;;;6.70;79.90;;;;;;5093218;28;20117;-77
2023/12/08 12:13:03;;;;;;;4.40;2.53;;;6.70;80.40;;;;;;5069592;28;20024;-77
2023/12/08 12:15:36;;;;;;;3.95;3.10;;;6.70;80.80;;;;;;5074031;28;20036;-77
2023/12/08 12:18:03;;;;;;;2.55;2.03;;;6.80;80.60;;;;;;5091414;28;20467;-78
2023/12/08 12:20:31;;;;;;;4.22;2.28;;;6.80;80.50;;;;;;5058001;28;20024;-79
2023/12/08 12:22:57;;;;;;;3.47;2.30;;;6.90;80.20;;;;;;5074960;28;20035;-78
2023/12/08 12:25:25;;;;;;;3.38;2.25;;;7.00;80.10;;;;;;5092723;28;20020;-78
2023/12/08 12:27:52;;;;;;;4.47;2.83;;;7.00;80.10;;;;;;5057839;28;20042;-77
2023/12/08 12:30:20;;;;;;;9.32;5.28;;;7.10;79.90;;;;;;5073983;28;20027;-76
2023/12/08 12:32:47;;;;;;;12.25;6.28;;;7.00;79.70;;;;;;5092480;28;20110;-76
2023/12/08 12:35:14;;;;;;;8.00;5.22;;;7.00;79.80;;;;;;5095699;28;20073;-76
2023/12/08 12:37:40;;;;;;;6.38;4.35;;;7.00;79.80;;;;;;5074280;28;20020;-75
2023/12/08 12:40:10;;;;;;;4.03;3.10;;;7.00;79.80;;;;;;5092679;28;20055;-77
2023/12/08 12:42:48;;;;;;;4.68;3.15;;;7.10;79.90;;;;;;5074529;28;20437;-79
2023/12/08 12:45:28;;;;;;;3.78;2.83;;;7.10;79.70;;;;;;5072180;28;20464;-79
2023/12/08 12:48:03;;;;;;;5.03;3.05;;;7.00;79.70;;;;;;5072292;28;20024;-78
2023/12/08 12:50:30;;;;;;;4.32;3.00;;;7.10;79.70;;;;;;5071388;28;20016;-78
2023/12/08 12:53:04;;;;;;;3.80;2.47;;;7.10;79.50;;;;;;5056863;28;20500;-79
2023/12/08 12:55:33;;;;;;;2.55;1.77;;;7.10;79.50;;;;;;5048961;28;20033;-78
2023/12/08 12:57:58;;;;;;;2.45;1.80;;;7.10;79.60;;;;;;5074061;28;20059;-77
2023/12/08 13:00:32;;;;;;;3.65;2.50;;;7.10;79.70;;;;;;5058110;28;20025;-78
2023/12/08 13:03:08;;;;;;;3.28;2.40;;;7.10;79.70;;;;;;5057577;28;20078;-77
2023/12/08 13:05:34;;;;;;;2.30;2.08;;;7.10;79.90;;;;;;5039880;28;20071;-77
2023/12/08 13:07:59;;;;;;;3.92;2.90;;;7.10;79.60;;;;;;5057865;28;20070;-79
2023/12/08 13:10:25;;;;;;;4.68;2.90;;;7.10;79.60;;;;;;5058123;28;20020;-78
2023/12/08 13:12:51;;;;;;;5.70;4.07;;;7.10;79.60;;;;;;5057618;28;20094;-77
2023/12/08 13:15:18;;;;;;;4.70;3.00;;;7.10;79.50;;;;;;5057592;28;20621;-77
2023/12/08 13:17:44;;;;;;;2.78;2.03;;;7.10;79.70;;;;;;5057930;28;20473;-77
2023/12/08 13:20:10;;;;;;;3.42;2.15;;;7.10;79.00;;;;;;5058359;28;20059;-76